Time;durP1;ratioP1;P1;durP2;ratioP2;P2;SDS_P1;SDS_P2;PMS_P1;PMS_P2;Temp;Humidity;BMP_temperature;BMP_pressure;BME280_temperature;BME280_humidity;BME280_pressure;Samples;Min_cycle;Max_cycle;Signal;HPM_P1;HPM_P2
2021/12/16 00:02:02;;;;;;;1.70;1.48;;;18.40;53.80;;;;;;5056424;28;20694;-51
2021/12/16 00:05:14;;;;;;;2.70;1.85;;;18.40;53.20;;;;;;5058544;28;20048;-51
2021/12/16 00:07:52;;;;;;;2.38;2.17;;;18.40;53.20;;;;;;5056951;28;20106;-49
2021/12/16 00:10:26;;;;;;;2.15;1.65;;;18.40;53.30;;;;;;5061741;28;20056;-51
2021/12/16 00:29:56;;;;;;;4.35;1.63;;;18.40;53.30;;;;;;5026276;28;20056;-50
2021/12/16 00:32:34;;;;;;;3.83;2.03;;;18.30;53.40;;;;;;5025421;28;20103;-48
2021/12/16 00:35:02;;;;;;;1.38;1.27;;;18.30;53.40;;;;;;5021926;28;20128;-51
2021/12/16 00:37:31;;;;;;;2.95;1.90;;;18.40;53.50;;;;;;5023593;28;20048;-47
2021/12/16 00:39:58;;;;;;;1.42;1.33;;;18.40;53.60;;;;;;5022917;28;20044;-47
2021/12/16 00:42:35;;;;;;;1.63;1.40;;;18.40;53.60;;;;;;5023650;28;20041;-49
2021/12/16 00:45:27;;;;;;;3.13;2.88;;;18.40;53.70;;;;;;5024803;28;20482;-47
2021/12/16 00:47:58;;;;;;;1.65;1.42;;;18.40;53.70;;;;;;5023920;28;20104;-53
2021/12/16 00:56:05;;;;;;;2.53;2.15;;;18.40;54.10;;;;;;5055132;28;20044;-47
2021/12/16 00:58:41;;;;;;;3.92;2.97;;;18.40;54.20;;;;;;5056331;28;20120;-52
2021/12/16 01:01:19;;;;;;;4.70;1.75;;;18.40;54.10;;;;;;5061140;28;20040;-49
2021/12/16 01:03:56;;;;;;;2.55;1.63;;;18.40;54.10;;;;;;5058932;28;20049;-51
2021/12/16 01:06:46;;;;;;;;;;;18.40;54.10;;;;;;5053384;28;20037;-51
2021/12/16 01:10:01;;;;;;;2.30;1.88;;;18.30;54.00;;;;;;5058874;28;19934;-52
2021/12/16 01:34:59;;;;;;;2.63;1.60;;;18.40;54.20;;;;;;4974916;28;20051;-50
2021/12/16 01:38:05;;;;;;;1.13;1.08;;;18.30;54.10;;;;;;4974389;28;20050;-48
2021/12/16 01:41:03;;;;;;;2.85;1.60;;;18.40;54.10;;;;;;5000384;28;20196;-49
2021/12/16 01:46:38;;;;;;;5.60;1.80;;;18.40;54.20;;;;;;4971886;28;20062;-51
2021/12/16 01:49:32;;;;;;;1.90;1.38;;;18.40;54.20;;;;;;4976264;28;20177;-48
2021/12/16 01:52:12;;;;;;;2.20;2.00;;;18.40;54.20;;;;;;4987410;28;20120;-49
2021/12/16 01:54:54;;;;;;;1.85;1.75;;;18.40;54.20;;;;;;5011364;28;20033;-53
2021/12/16 01:57:30;;;;;;;2.47;2.03;;;18.40;54.20;;;;;;5058780;28;20432;-53
2021/12/16 02:00:04;;;;;;;2.05;1.60;;;18.40;54.20;;;;;;5046847;28;20099;-52
2021/12/16 02:02:45;;;;;;;1.20;1.08;;;18.40;54.30;;;;;;5054517;28;20041;-49
2021/12/16 02:05:33;;;;;;;3.40;2.17;;;18.40;54.30;;;;;;5063379;28;20040;-48
2021/12/16 02:08:18;;;;;;;4.35;2.42;;;18.40;54.30;;;;;;5058210;28;20221;-50
2021/12/16 02:10:57;;;;;;;2.13;1.40;;;18.40;54.30;;;;;;5055112;28;20069;-50
2021/12/16 02:13:45;;;;;;;2.70;1.67;;;18.40;54.30;;;;;;5055446;28;20141;-49
2021/12/16 02:32:54;;;;;;;2.00;1.90;;;18.40;54.50;;;;;;5003055;28;20620;-50
2021/12/16 02:35:31;;;;;;;1.85;1.55;;;18.40;54.50;;;;;;5007476;28;20087;-49
2021/12/16 02:38:03;;;;;;;4.88;1.80;;;18.40;54.50;;;;;;5004939;28;20060;-51
2021/12/16 02:40:31;;;;;;;1.70;1.60;;;18.40;54.50;;;;;;5005228;28;20042;-50
2021/12/16 02:43:05;;;;;;;1.60;1.23;;;18.40;54.40;;;;;;5002381;28;20059;-50
2021/12/16 02:48:31;;;;;;;1.58;1.48;;;18.40;54.30;;;;;;5004680;28;20822;-52
2021/12/16 02:50:59;;;;;;;2.25;1.83;;;18.40;54.90;;;;;;5005037;28;20410;-52
2021/12/16 02:53:28;;;;;;;1.85;1.30;;;18.40;54.30;;;;;;4997403;28;20053;-52
2021/12/16 02:55:57;;;;;;;3.03;2.17;;;18.40;54.30;;;;;;5017740;28;20438;-53
2021/12/16 02:58:26;;;;;;;1.80;1.70;;;18.40;54.20;;;;;;5026273;28;20049;-52
2021/12/16 03:01:04;;;;;;;3.58;2.20;;;18.40;54.20;;;;;;5050423;28;20139;-50
2021/12/16 03:03:31;;;;;;;2.88;2.33;;;18.50;54.20;;;;;;5046348;28;20052;-52
2021/12/16 03:06:01;;;;;;;2.10;1.30;;;18.50;54.20;;;;;;5050193;28;20051;-51
2021/12/16 03:08:32;;;;;;;3.00;1.55;;;18.50;54.10;;;;;;5060489;28;20051;-49
2021/12/16 03:11:06;;;;;;;2.30;0.95;;;18.50;54.10;;;;;;5052451;28;20103;-53
2021/12/16 03:13:41;;;;;;;3.08;1.30;;;18.50;54.10;;;;;;5054443;28;20135;-49
2021/12/16 03:16:18;;;;;;;2.63;1.40;;;18.50;54.00;;;;;;5050197;28;20052;-50
2021/12/16 03:18:51;;;;;;;1.95;1.65;;;18.50;54.00;;;;;;5049458;28;20041;-54
2021/12/16 03:21:24;;;;;;;1.80;1.70;;;18.50;54.00;;;;;;5044620;28;20076;-53
2021/12/16 03:24:15;;;;;;;1.95;1.35;;;18.50;54.00;;;;;;5053837;28;20517;-54
2021/12/16 03:36:04;;;;;;;2.30;1.27;;;18.40;53.90;;;;;;4964100;28;20141;-54
2021/12/16 03:38:32;;;;;;;1.73;1.58;;;18.50;53.90;;;;;;4961432;28;20063;-51
2021/12/16 03:41:01;;;;;;;1.70;1.15;;;18.40;53.80;;;;;;4959434;28;20058;-51
2021/12/16 03:43:29;;;;;;;2.33;1.15;;;18.40;53.80;;;;;;4961098;28;20109;-53
2021/12/16 03:48:50;;;;;;;0.85;0.85;;;18.50;53.80;;;;;;4960893;28;20047;-50
2021/12/16 03:51:23;;;;;;;3.83;0.80;;;18.40;53.70;;;;;;4963771;28;20499;-52
2021/12/16 03:53:54;;;;;;;1.63;1.45;;;18.50;53.70;;;;;;4962578;28;20082;-51
2021/12/16 03:56:25;;;;;;;1.33;1.23;;;18.50;53.70;;;;;;4962503;28;20047;-52
2021/12/16 03:59:21;;;;;;;2.67;1.27;;;18.50;53.70;;;;;;4977218;28;20051;-50
2021/12/16 04:01:57;;;;;;;2.75;1.58;;;18.50;53.70;;;;;;4960422;28;20047;-50
2021/12/16 04:04:31;;;;;;;1.98;1.77;;;18.50;53.70;;;;;;4956936;28;20054;-49
2021/12/16 04:07:01;;;;;;;1.85;1.73;;;18.50;53.70;;;;;;4963464;28;20051;-51
2021/12/16 04:09:30;;;;;;;2.45;1.38;;;18.40;53.60;;;;;;4961978;28;20061;-51
2021/12/16 04:12:19;;;;;;;2.00;1.88;;;18.50;53.70;;;;;;5015051;28;20056;-54
2021/12/16 04:14:46;;;;;;;1.23;1.13;;;18.50;53.70;;;;;;5047792;28;20053;-50
2021/12/16 04:17:15;;;;;;;1.85;1.30;;;18.50;53.70;;;;;;5041592;28;20045;-54
2021/12/16 04:19:54;;;;;;;4.60;2.00;;;18.50;53.70;;;;;;5048295;28;20046;-52
2021/12/16 04:22:29;;;;;;;3.08;1.88;;;18.50;53.80;;;;;;5051060;28;20072;-50
2021/12/16 04:25:01;;;;;;;3.30;1.20;;;18.50;53.90;;;;;;5044766;28;20029;-48
2021/12/16 04:27:31;;;;;;;2.28;2.08;;;18.50;53.90;;;;;;5042519;28;20037;-52
2021/12/16 04:29:58;;;;;;;4.57;2.15;;;18.50;53.90;;;;;;5045929;28;20056;-50
2021/12/16 04:32:26;;;;;;;2.58;1.40;;;18.50;53.90;;;;;;5053198;28;20053;-51
2021/12/16 04:34:54;;;;;;;3.15;2.00;;;18.50;53.90;;;;;;5048224;28;20045;-52
2021/12/16 04:37:21;;;;;;;3.15;1.83;;;18.50;53.90;;;;;;5049990;28;20791;-52
2021/12/16 04:39:48;;;;;;;2.58;1.85;;;18.50;53.90;;;;;;5048964;28;20060;-52
2021/12/16 04:42:19;;;;;;;3.60;2.25;;;18.50;53.90;;;;;;5033001;28;20688;-50
2021/12/16 04:44:50;;;;;;;2.92;1.73;;;18.50;53.90;;;;;;5029943;28;20038;-50
2021/12/16 04:47:17;;;;;;;1.98;1.58;;;18.50;53.90;;;;;;5036141;28;20107;-53
2021/12/16 04:49:46;;;;;;;3.78;1.98;;;18.50;53.90;;;;;;5037707;28;20079;-54
2021/12/16 04:52:18;;;;;;;2.58;2.38;;;18.50;53.80;;;;;;5033557;28;20053;-55
2021/12/16 04:54:46;;;;;;;4.30;2.55;;;18.50;53.80;;;;;;5030799;28;20044;-51
2021/12/16 04:57:14;;;;;;;5.28;3.22;;;18.50;53.80;;;;;;5047988;28;20033;-52
2021/12/16 04:59:44;;;;;;;3.20;2.55;;;18.50;53.90;;;;;;5046463;28;20040;-53
2021/12/16 05:02:17;;;;;;;2.10;2.00;;;18.50;53.80;;;;;;5034031;28;20052;-51
2021/12/16 05:05:09;;;;;;;3.70;2.55;;;18.50;53.80;;;;;;5040947;28;20053;-51
2021/12/16 05:07:37;;;;;;;2.53;2.30;;;18.50;53.80;;;;;;5039564;28;20154;-52
2021/12/16 05:10:22;;;;;;;3.38;2.28;;;18.50;53.80;;;;;;5033464;28;20045;-54
2021/12/16 05:13:01;;;;;;;9.02;2.17;;;18.50;53.80;;;;;;5032125;28;20047;-51
2021/12/16 05:15:33;;;;;;;2.70;2.20;;;18.50;53.90;;;;;;5033346;28;20037;-52
2021/12/16 05:18:05;;;;;;;2.92;1.73;;;18.50;53.80;;;;;;5041592;28;20837;-55
2021/12/16 05:20:38;;;;;;;4.05;2.08;;;18.60;53.90;;;;;;5034529;28;20425;-52
2021/12/16 05:26:07;;;;;;;2.78;1.85;;;18.50;53.80;;;;;;5037034;28;20044;-52
2021/12/16 05:28:34;;;;;;;4.75;1.88;;;18.50;53.80;;;;;;5032991;28;20049;-47
2021/12/16 05:31:02;;;;;;;2.42;1.67;;;18.50;53.80;;;;;;5032226;28;20358;-48
2021/12/16 05:33:35;;;;;;;5.05;2.47;;;18.60;53.90;;;;;;5031128;28;20068;-49
2021/12/16 05:36:05;;;;;;;2.90;2.15;;;18.50;53.80;;;;;;5040410;28;20042;-49
2021/12/16 05:38:33;;;;;;;5.13;2.58;;;18.50;53.80;;;;;;5046507;28;20123;-50
2021/12/16 05:41:03;;;;;;;3.45;1.55;;;18.50;53.80;;;;;;5037360;28;20041;-48
2021/12/16 05:43:36;;;;;;;3.78;2.53;;;18.50;53.80;;;;;;5030488;28;20053;-45
2021/12/16 05:46:04;;;;;;;2.03;1.67;;;18.60;53.90;;;;;;5033338;28;20029;-49
2021/12/16 05:48:36;;;;;;;2.05;1.83;;;18.50;53.80;;;;;;5029638;28;20126;-47
2021/12/16 05:51:08;;;;;;;3.08;1.90;;;18.50;53.80;;;;;;5038430;28;20050;-46
2021/12/16 05:53:36;;;;;;;2.83;2.22;;;18.50;53.80;;;;;;5032688;28;20107;-50
2021/12/16 05:56:10;;;;;;;4.43;1.63;;;18.50;53.80;;;;;;5034751;28;20034;-46
2021/12/16 05:58:39;;;;;;;5.80;2.30;;;18.50;53.80;;;;;;5031289;28;20044;-45
2021/12/16 06:01:10;;;;;;;3.00;2.80;;;18.50;53.80;;;;;;5032954;28;20041;-52
2021/12/16 06:03:39;;;;;;;1.80;1.38;;;18.50;53.80;;;;;;5028909;28;20120;-51
2021/12/16 06:06:08;;;;;;;3.75;1.65;;;18.50;53.90;;;;;;5030058;28;20128;-52
2021/12/16 06:08:35;;;;;;;4.15;2.85;;;18.60;54.00;;;;;;5022763;28;20052;-49
2021/12/16 06:11:21;;;;;;;4.22;2.22;;;18.60;54.00;;;;;;5033362;28;20049;-52
2021/12/16 06:14:00;;;;;;;2.35;1.60;;;18.60;54.10;;;;;;5039786;28;20041;-53
2021/12/16 06:27:31;;;;;;;2.75;1.67;;;18.50;54.30;;;;;;5027980;28;20387;-46
2021/12/16 06:29:59;;;;;;;2.80;2.03;;;18.50;54.40;;;;;;5031020;28;20497;-49
2021/12/16 06:32:26;;;;;;;3.55;2.15;;;18.50;54.40;;;;;;5035737;28;20180;-51
2021/12/16 06:34:55;;;;;;;3.40;1.77;;;18.60;54.50;;;;;;5030333;28;20041;-52
2021/12/16 06:37:24;;;;;;;2.17;1.75;;;18.60;54.40;;;;;;5034840;28;20048;-50
2021/12/16 06:39:52;;;;;;;3.47;1.95;;;18.60;54.50;;;;;;5041450;28;20056;-51
2021/12/16 06:42:30;;;;;;;2.55;1.65;;;18.60;54.50;;;;;;5029906;28;20482;-51
2021/12/16 06:45:08;;;;;;;2.35;2.15;;;18.60;54.60;;;;;;5030775;28;20042;-49
2021/12/16 06:47:42;;;;;;;8.95;1.73;;;18.60;54.80;;;;;;5034800;28;20421;-49
2021/12/16 06:50:13;;;;;;;6.75;3.53;;;18.60;54.80;;;;;;5039066;28;20571;-53
2021/12/16 06:52:47;;;;;;;3.30;2.45;;;18.60;55.00;;;;;;5030358;28;20468;-51
2021/12/16 06:55:22;;;;;;;2.38;1.90;;;18.60;55.10;;;;;;5034644;28;20048;-51
2021/12/16 06:57:53;;;;;;;3.47;1.92;;;18.60;55.10;;;;;;5030089;28;20071;-51
2021/12/16 07:00:31;;;;;;;3.20;2.22;;;18.60;55.10;;;;;;5031671;28;20033;-49
2021/12/16 07:02:59;;;;;;;2.95;2.28;;;18.60;55.10;;;;;;5026820;28;20545;-48
2021/12/16 07:05:30;;;;;;;2.28;2.00;;;18.60;55.10;;;;;;5035044;28;20049;-47
2021/12/16 07:07:59;;;;;;;7.88;2.17;;;18.60;55.10;;;;;;5038272;28;20045;-52
2021/12/16 07:10:29;;;;;;;5.03;2.70;;;18.60;55.10;;;;;;5035148;28;20522;-52
2021/12/16 07:13:00;;;;;;;2.90;1.63;;;18.60;55.10;;;;;;5031072;28;20040;-50
2021/12/16 07:15:31;;;;;;;2.80;2.10;;;18.60;55.00;;;;;;5029636;28;20033;-53
2021/12/16 07:17:59;;;;;;;3.13;2.25;;;18.60;55.00;;;;;;5042072;28;20608;-49
2021/12/16 07:20:29;;;;;;;1.98;1.58;;;18.60;55.00;;;;;;5033681;28;20057;-56
2021/12/16 07:23:00;;;;;;;9.48;2.28;;;18.60;55.00;;;;;;5034219;28;20049;-47
2021/12/16 07:25:27;;;;;;;3.83;3.10;;;18.70;55.20;;;;;;5031800;28;20123;-48
2021/12/16 07:27:55;;;;;;;3.78;2.47;;;18.70;55.20;;;;;;5030288;28;20187;-46
2021/12/16 07:30:24;;;;;;;7.65;3.08;;;18.70;55.10;;;;;;5028602;28;20053;-51
2021/12/16 07:32:52;;;;;;;11.38;4.00;;;18.70;55.20;;;;;;5030963;28;20041;-47
2021/12/16 07:35:22;;;;;;;8.63;3.13;;;18.70;56.70;;;;;;5030776;28;20049;-49
2021/12/16 07:37:50;;;;;;;7.93;2.63;;;18.70;59.00;;;;;;5037714;28;20135;-52
2021/12/16 07:40:25;;;;;;;5.60;2.63;;;18.70;60.40;;;;;;5039416;28;20406;-48
2021/12/16 07:43:10;;;;;;;5.45;3.30;;;18.70;61.20;;;;;;5029557;28;20041;-48
2021/12/16 07:45:42;;;;;;;5.97;3.45;;;18.80;61.50;;;;;;5027184;28;20044;-53
2021/12/16 07:48:11;;;;;;;7.90;3.17;;;18.80;61.90;;;;;;5028231;28;20037;-50
2021/12/16 07:50:39;;;;;;;20.20;4.32;;;18.80;62.30;;;;;;5034526;28;20529;-50
2021/12/16 07:53:07;;;;;;;9.60;3.95;;;18.80;62.70;;;;;;5028177;28;20049;-49
2021/12/16 07:55:39;;;;;;;3.25;2.65;;;18.80;63.00;;;;;;5032374;28;20049;-46
2021/12/16 07:58:06;;;;;;;5.88;2.75;;;18.90;63.60;;;;;;5034732;28;20061;-49
2021/12/16 08:00:34;;;;;;;13.93;3.08;;;18.80;63.00;;;;;;5030156;28;20037;-47
2021/12/16 08:03:03;;;;;;;7.72;2.83;;;18.90;63.00;;;;;;5025940;28;20045;-50
2021/12/16 08:05:35;;;;;;;4.93;2.65;;;18.90;63.00;;;;;;5034042;28;20042;-48
2021/12/16 08:08:03;;;;;;;7.32;2.45;;;18.90;63.00;;;;;;5038577;28;20065;-51
2021/12/16 08:10:31;;;;;;;8.32;3.20;;;18.90;62.90;;;;;;5034269;28;20041;-49
2021/12/16 08:13:00;;;;;;;6.55;2.63;;;18.90;62.80;;;;;;5030610;28;20067;-51
2021/12/16 08:15:27;;;;;;;7.03;2.53;;;18.90;62.60;;;;;;5032499;28;20041;-49
2021/12/16 08:17:56;;;;;;;4.10;2.58;;;18.90;62.40;;;;;;5036867;28;20051;-48
2021/12/16 08:20:23;;;;;;;5.10;3.60;;;18.90;62.40;;;;;;5034201;28;20069;-48
2021/12/16 08:22:51;;;;;;;6.72;2.83;;;18.90;62.20;;;;;;5036506;28;20060;-52
2021/12/16 08:25:22;;;;;;;4.28;2.17;;;18.90;62.10;;;;;;5037254;28;20044;-49
2021/12/16 08:27:52;;;;;;;5.28;2.83;;;18.90;62.00;;;;;;5033955;28;20049;-51
2021/12/16 08:30:23;;;;;;;4.03;2.47;;;18.90;61.80;;;;;;5028800;28;20514;-52
2021/12/16 08:32:50;;;;;;;5.30;2.85;;;18.80;61.60;;;;;;5038425;28;20563;-47
2021/12/16 08:35:18;;;;;;;5.55;2.58;;;18.80;61.50;;;;;;5040316;28;20045;-52
2021/12/16 08:37:45;;;;;;;2.90;2.50;;;18.80;61.30;;;;;;5037692;28;20076;-49
2021/12/16 08:40:16;;;;;;;6.13;1.92;;;18.80;61.20;;;;;;5043106;28;20409;-52
2021/12/16 08:42:44;;;;;;;5.28;2.55;;;18.80;61.00;;;;;;5032295;28;20124;-47
2021/12/16 08:45:16;;;;;;;8.60;2.13;;;18.80;60.90;;;;;;5043427;28;20037;-51
2021/12/16 08:47:45;;;;;;;3.95;2.92;;;18.80;60.90;;;;;;5032173;28;20067;-52
2021/12/16 08:50:15;;;;;;;3.47;3.17;;;18.80;60.70;;;;;;5044663;28;20041;-53
2021/12/16 08:52:42;;;;;;;2.78;2.38;;;18.80;60.60;;;;;;5035960;28;20056;-49
2021/12/16 08:55:11;;;;;;;5.90;3.45;;;18.80;60.60;;;;;;5034997;28;20518;-48
2021/12/16 08:57:38;;;;;;;4.93;2.38;;;18.80;60.50;;;;;;5031559;28;20064;-49
2021/12/16 09:00:09;;;;;;;5.25;2.78;;;18.80;60.40;;;;;;5033541;28;20036;-53
2021/12/16 09:02:36;;;;;;;5.72;2.20;;;18.80;60.30;;;;;;5033598;28;20038;-51
2021/12/16 09:05:05;;;;;;;4.25;3.80;;;18.80;60.20;;;;;;5031749;28;20042;-47
2021/12/16 09:07:32;;;;;;;3.72;3.13;;;18.80;60.10;;;;;;5036664;28;20409;-49
2021/12/16 09:09:59;;;;;;;7.13;3.08;;;18.80;60.00;;;;;;5041055;28;20587;-49
2021/12/16 09:12:49;;;;;;;5.38;3.92;;;18.80;60.00;;;;;;5028445;28;20041;-51
2021/12/16 09:15:18;;;;;;;5.10;3.28;;;18.80;59.90;;;;;;5026117;28;20041;-47
2021/12/16 09:17:45;;;;;;;8.52;3.40;;;18.80;59.80;;;;;;5036450;28;20048;-52
2021/12/16 09:20:15;;;;;;;4.82;3.28;;;18.80;59.70;;;;;;5032634;28;20045;-47
2021/12/16 09:22:43;;;;;;;5.15;2.75;;;18.80;59.70;;;;;;5034993;28;20076;-51
2021/12/16 09:25:10;;;;;;;4.20;3.30;;;18.80;59.60;;;;;;5034941;28;20047;-48
2021/12/16 09:27:38;;;;;;;5.13;3.70;;;18.70;59.50;;;;;;5032923;28;20413;-49
2021/12/16 09:30:07;;;;;;;3.38;2.97;;;18.70;59.40;;;;;;5027957;28;20045;-49
2021/12/16 09:32:34;;;;;;;5.55;3.60;;;18.70;59.30;;;;;;5036864;28;20421;-49
2021/12/16 09:35:02;;;;;;;5.95;3.25;;;18.70;59.20;;;;;;5037398;28;20148;-53
2021/12/16 09:37:30;;;;;;;9.50;3.33;;;18.80;59.20;;;;;;5034724;28;20630;-47
2021/12/16 09:39:58;;;;;;;5.93;4.43;;;18.80;59.10;;;;;;5042002;28;20044;-50
2021/12/16 09:42:26;;;;;;;4.70;3.38;;;18.70;59.00;;;;;;5035671;28;20143;-48
2021/12/16 09:44:54;;;;;;;7.88;3.85;;;18.80;59.00;;;;;;5036166;28;20136;-52
2021/12/16 09:47:23;;;;;;;7.78;3.65;;;18.80;59.00;;;;;;5034429;28;20049;-49
2021/12/16 09:49:51;;;;;;;6.88;4.85;;;18.70;58.80;;;;;;5034829;28;20045;-51
2021/12/16 09:52:18;;;;;;;6.95;3.53;;;18.80;58.80;;;;;;5031323;28;20065;-50
2021/12/16 09:54:47;;;;;;;7.20;4.28;;;18.80;58.70;;;;;;5031097;28;20051;-48
2021/12/16 09:57:17;;;;;;;3.88;3.08;;;18.80;58.70;;;;;;5026192;28;20052;-49
2021/12/16 09:59:45;;;;;;;5.43;3.33;;;18.80;58.60;;;;;;5033859;28;20069;-50
2021/12/16 10:02:15;;;;;;;7.82;3.70;;;18.80;58.50;;;;;;5033035;28;20120;-52
2021/12/16 10:04:43;;;;;;;4.60;3.05;;;18.80;58.40;;;;;;5034706;28;20053;-49
2021/12/16 10:07:14;;;;;;;5.25;4.15;;;18.70;58.90;;;;;;5033864;28;20048;-49
2021/12/16 10:09:42;;;;;;;4.68;3.10;;;18.80;58.20;;;;;;5041495;28;20040;-47
2021/12/16 10:12:15;;;;;;;6.07;3.75;;;18.80;58.20;;;;;;5026307;28;20045;-49
2021/12/16 10:15:05;;;;;;;7.78;3.58;;;18.80;58.10;;;;;;5034071;28;20041;-51
2021/12/16 10:17:35;;;;;;;7.05;4.03;;;18.80;58.10;;;;;;5035949;28;20042;-48
2021/12/16 10:20:10;;;;;;;7.32;4.32;;;18.70;57.90;;;;;;5030578;28;20042;-46
2021/12/16 10:22:42;;;;;;;7.03;3.67;;;18.80;57.90;;;;;;5033577;28;20144;-47
2021/12/16 10:25:21;;;;;;;12.35;5.68;;;18.80;57.80;;;;;;5032485;28;20399;-49
2021/12/16 10:28:00;;;;;;;10.13;5.25;;;18.80;57.80;;;;;;5030547;28;20405;-47
2021/12/16 10:30:37;;;;;;;9.38;4.40;;;18.80;57.70;;;;;;5027658;28;20048;-48
2021/12/16 10:33:15;;;;;;;11.77;4.38;;;18.80;57.60;;;;;;5030303;28;20037;-49
2021/12/16 10:35:47;;;;;;;9.85;5.40;;;18.80;57.50;;;;;;5032772;28;20037;-51
2021/12/16 10:38:18;;;;;;;6.90;4.47;;;18.80;57.50;;;;;;5039372;28;20107;-48
2021/12/16 10:40:48;;;;;;;8.43;5.10;;;18.80;57.40;;;;;;5033169;28;20042;-52
2021/12/16 10:43:26;;;;;;;10.55;5.93;;;18.80;57.30;;;;;;5034209;28;20043;-48
2021/12/16 10:45:57;;;;;;;9.77;5.40;;;18.80;57.20;;;;;;5027122;28;20083;-49
2021/12/16 10:48:28;;;;;;;11.07;5.00;;;18.80;57.20;;;;;;5027043;28;20040;-50
2021/12/16 10:51:09;;;;;;;11.10;5.72;;;18.80;57.10;;;;;;5031127;28;20137;-49
2021/12/16 10:54:11;;;;;;;9.50;4.60;;;18.90;57.00;;;;;;5033352;28;20057;-51
2021/12/16 10:56:46;;;;;;;7.65;4.30;;;18.90;57.00;;;;;;5031478;28;20045;-51
2021/12/16 10:59:19;;;;;;;10.30;5.15;;;18.80;56.90;;;;;;5030763;28;20038;-52
2021/12/16 11:01:52;;;;;;;10.07;5.00;;;18.80;56.80;;;;;;5036049;28;20128;-47
2021/12/16 11:04:24;;;;;;;12.43;5.20;;;18.80;56.80;;;;;;5028920;28;20053;-50
2021/12/16 11:06:55;;;;;;;8.77;5.50;;;18.80;56.70;;;;;;5036038;28;20102;-49
2021/12/16 11:09:44;;;;;;;9.30;5.20;;;18.80;56.60;;;;;;5040598;28;20585;-50
2021/12/16 11:12:24;;;;;;;9.07;5.10;;;18.80;56.50;;;;;;5037567;28;20084;-48
2021/12/16 11:14:57;;;;;;;12.20;4.57;;;18.80;56.40;;;;;;5028320;28;20041;-52
2021/12/16 11:17:26;;;;;;;8.45;3.92;;;18.90;56.40;;;;;;5031817;28;20033;-52
2021/12/16 11:19:57;;;;;;;9.23;4.28;;;18.90;56.40;;;;;;5029471;28;20069;-49
2021/12/16 11:22:28;;;;;;;10.55;4.68;;;18.90;56.30;;;;;;5032001;28;20060;-48
2021/12/16 11:24:55;;;;;;;8.93;4.40;;;18.90;56.20;;;;;;5030496;28;20048;-50
2021/12/16 11:27:27;;;;;;;7.35;3.58;;;18.90;56.20;;;;;;5032040;28;20771;-50
2021/12/16 11:29:58;;;;;;;8.93;5.03;;;18.90;56.10;;;;;;5027951;28;20124;-52
2021/12/16 11:32:41;;;;;;;7.35;3.83;;;18.90;56.00;;;;;;5028545;28;20120;-51
2021/12/16 11:35:44;;;;;;;8.48;4.50;;;18.90;56.50;;;;;;5037674;28;20585;-46
2021/12/16 11:38:19;;;;;;;9.63;3.80;;;19.00;55.90;;;;;;4998197;28;20054;-49
2021/12/16 11:41:22;;;;;;;6.00;3.83;;;18.90;55.90;;;;;;4977127;28;20046;-47
2021/12/16 11:44:04;;;;;;;8.73;3.95;;;18.90;55.70;;;;;;4941631;29;20129;-47
2021/12/16 11:46:36;;;;;;;6.22;3.95;;;18.90;55.80;;;;;;4943958;29;20043;-50
2021/12/16 11:49:06;;;;;;;4.57;3.25;;;18.90;55.70;;;;;;4923667;29;20102;-48
2021/12/16 11:51:37;;;;;;;6.43;3.38;;;18.90;55.60;;;;;;4948270;29;20051;-49
2021/12/16 11:54:13;;;;;;;6.05;3.53;;;19.00;55.60;;;;;;4947591;29;20530;-51
2021/12/16 11:56:44;;;;;;;6.50;3.67;;;19.00;55.60;;;;;;4945388;29;20599;-49
2021/12/16 11:59:12;;;;;;;4.07;2.95;;;19.00;55.50;;;;;;4948388;28;20230;-48
2021/12/16 12:01:41;;;;;;;7.40;3.67;;;19.00;55.40;;;;;;4947262;28;20054;-49
2021/12/16 12:04:11;;;;;;;8.13;3.17;;;19.00;55.40;;;;;;4943645;28;20130;-47
2021/12/16 12:06:40;;;;;;;6.68;3.63;;;18.90;55.20;;;;;;4927584;29;20544;-47
2021/12/16 12:09:09;;;;;;;4.22;3.22;;;19.00;55.20;;;;;;4976948;28;20049;-49
2021/12/16 12:11:42;;;;;;;8.02;3.35;;;19.00;55.20;;;;;;5007469;28;20201;-51
2021/12/16 12:14:13;;;;;;;4.93;3.35;;;19.00;55.10;;;;;;5006495;28;20541;-48
2021/12/16 12:16:44;;;;;;;7.50;4.10;;;19.00;55.10;;;;;;5005591;28;20046;-48
2021/12/16 12:19:15;;;;;;;4.65;2.38;;;19.00;55.00;;;;;;5014138;28;20052;-47
2021/12/16 12:21:46;;;;;;;5.47;3.53;;;19.00;55.00;;;;;;5032609;28;20116;-45
2021/12/16 12:24:17;;;;;;;6.03;3.65;;;19.00;54.90;;;;;;5028813;28;20038;-46
2021/12/16 12:26:49;;;;;;;5.68;3.00;;;19.00;55.50;;;;;;5034419;28;20041;-52
2021/12/16 12:29:21;;;;;;;3.38;2.72;;;19.00;54.80;;;;;;5035502;28;20049;-46
2021/12/16 12:31:54;;;;;;;4.68;3.05;;;19.00;54.80;;;;;;5031688;28;20095;-51
2021/12/16 12:34:22;;;;;;;5.22;3.25;;;19.00;54.80;;;;;;5042390;28;20045;-49
2021/12/16 12:36:52;;;;;;;5.90;3.05;;;19.00;54.70;;;;;;5042756;28;20041;-49
2021/12/16 12:39:22;;;;;;;5.32;2.53;;;19.00;54.70;;;;;;5041161;28;20665;-52
2021/12/16 12:41:50;;;;;;;4.90;2.95;;;19.00;54.60;;;;;;5037623;28;20046;-50
2021/12/16 12:44:18;;;;;;;4.75;3.00;;;19.00;54.60;;;;;;5038145;28;20057;-47
2021/12/16 12:46:46;;;;;;;6.50;2.42;;;19.00;54.60;;;;;;5032438;28;20508;-51
2021/12/16 12:49:23;;;;;;;5.20;3.17;;;19.00;54.50;;;;;;5035342;28;20413;-50
2021/12/16 12:51:51;;;;;;;4.18;2.75;;;19.00;54.40;;;;;;5031922;28;20041;-52
2021/12/16 12:54:23;;;;;;;5.10;2.65;;;19.00;54.40;;;;;;5031863;28;20046;-50
2021/12/16 12:56:51;;;;;;;4.82;3.38;;;19.10;54.50;;;;;;5031132;28;20045;-53
2021/12/16 12:59:20;;;;;;;4.30;3.08;;;19.10;54.40;;;;;;5034600;28;20041;-51
2021/12/16 13:01:51;;;;;;;4.22;2.53;;;19.00;54.40;;;;;;5040940;28;20041;-51
2021/12/16 13:04:24;;;;;;;4.72;2.97;;;19.00;54.30;;;;;;5031940;28;20132;-46
2021/12/16 13:06:57;;;;;;;2.88;2.22;;;19.00;54.20;;;;;;5032176;28;20044;-48
2021/12/16 13:09:36;;;;;;;3.22;2.75;;;19.10;54.30;;;;;;5042285;28;20379;-52
2021/12/16 13:12:21;;;;;;;3.80;2.47;;;19.10;54.20;;;;;;5034844;28;20060;-50
2021/12/16 13:14:51;;;;;;;4.47;3.15;;;19.00;54.10;;;;;;5027947;28;20393;-50
2021/12/16 13:23:53;;;;;;;5.30;2.15;;;19.10;54.10;;;;;;5012383;28;20212;-48
2021/12/16 13:26:34;;;;;;;4.97;2.90;;;19.00;54.10;;;;;;5008178;28;20511;-46
2021/12/16 13:29:09;;;;;;;2.97;2.15;;;19.00;54.00;;;;;;5009110;28;20128;-49
2021/12/16 13:31:47;;;;;;;4.38;2.72;;;19.00;54.00;;;;;;4997327;28;20529;-47
2021/12/16 13:34:34;;;;;;;2.67;2.47;;;19.00;53.90;;;;;;5010209;28;20045;-50
2021/12/16 13:37:11;;;;;;;2.45;2.25;;;19.10;53.90;;;;;;5008877;28;20042;-49
2021/12/16 13:39:44;;;;;;;4.97;2.42;;;19.10;53.90;;;;;;5005746;28;20045;-47
2021/12/16 13:42:15;;;;;;;3.22;2.55;;;19.10;53.90;;;;;;5004395;28;20042;-50
2021/12/16 13:44:53;;;;;;;2.17;1.55;;;19.00;53.80;;;;;;5012630;28;20073;-51
2021/12/16 13:47:42;;;;;;;5.13;1.77;;;19.10;53.80;;;;;;5010532;28;20092;-46
2021/12/16 14:05:24;;;;;;;2.83;1.55;;;19.00;53.60;;;;;;4991559;28;20542;-48
2021/12/16 14:07:56;;;;;;;1.58;1.08;;;19.00;53.60;;;;;;4997004;28;20153;-49
2021/12/16 14:10:47;;;;;;;3.38;1.60;;;19.00;53.60;;;;;;4999495;28;20049;-48
2021/12/16 14:16:28;;;;;;;2.90;1.48;;;19.00;53.50;;;;;;4991964;28;20538;-48
2021/12/16 14:36:29;;;;;;;3.95;1.40;;;19.00;53.40;;;;;;5031594;28;20148;-47
2021/12/16 14:42:05;;;;;;;3.30;1.85;;;19.00;53.40;;;;;;5027663;28;20045;-47
2021/12/16 14:50:10;;;;;;;;;;;19.00;53.30;;;;;;5028874;28;20110;-50
2021/12/16 14:52:39;;;;;;;2.10;1.40;;;19.00;53.30;;;;;;5037750;28;19925;-48
2021/12/16 14:55:09;;;;;;;1.52;1.35;;;19.00;53.40;;;;;;5030215;28;20041;-48
2021/12/16 14:57:39;;;;;;;1.73;1.27;;;19.00;53.30;;;;;;5028752;28;20614;-51
2021/12/16 15:00:18;;;;;;;2.63;1.52;;;19.00;53.30;;;;;;5030896;28;20111;-49
2021/12/16 15:02:48;;;;;;;3.10;1.98;;;19.00;53.20;;;;;;5031434;28;20132;-47
2021/12/16 15:05:29;;;;;;;1.23;1.10;;;19.00;53.20;;;;;;5033071;28;20121;-52
2021/12/16 15:08:05;;;;;;;1.63;1.20;;;19.00;53.10;;;;;;5040496;28;20044;-50
2021/12/16 15:10:32;;;;;;;2.25;1.42;;;19.00;53.10;;;;;;5039442;28;20087;-49
2021/12/16 15:13:06;;;;;;;3.80;1.52;;;19.00;53.10;;;;;;5029861;28;20143;-51
2021/12/16 15:15:43;;;;;;;1.92;1.27;;;19.00;53.10;;;;;;5028125;28;20056;-46
2021/12/16 15:40:36;;;;;;;2.17;1.92;;;19.00;53.00;;;;;;5034504;28;20038;-46
2021/12/16 15:43:06;;;;;;;1.77;1.57;;;19.00;53.00;;;;;;5031671;28;20066;-48
2021/12/16 15:45:37;;;;;;;1.67;1.13;;;19.00;53.00;;;;;;5028775;28;20299;-47
2021/12/16 15:48:09;;;;;;;1.75;0.95;;;19.00;53.00;;;;;;5032565;28;20056;-54
2021/12/16 15:50:39;;;;;;;1.27;1.13;;;18.90;52.90;;;;;;5030820;28;20045;-46
2021/12/16 15:53:08;;;;;;;1.63;0.88;;;19.00;52.90;;;;;;5033413;28;20502;-47
2021/12/16 15:55:39;;;;;;;3.53;1.35;;;19.00;52.90;;;;;;5036241;28;20136;-48
2021/12/16 15:58:10;;;;;;;3.05;1.83;;;19.00;52.90;;;;;;5029389;28;20060;-50
2021/12/16 16:00:41;;;;;;;2.00;1.63;;;19.00;52.90;;;;;;5027769;28;20072;-50
2021/12/16 16:03:11;;;;;;;1.23;1.10;;;19.00;52.90;;;;;;5031819;28;20037;-45
2021/12/16 16:05:41;;;;;;;2.35;2.15;;;19.00;52.90;;;;;;5038288;28;20501;-45